Time;durP1;ratioP1;P1;durP2;ratioP2;P2;SDS_P1;SDS_P2;PMS_P1;PMS_P2;Temp;Humidity;BMP_temperature;BMP_pressure;BME280_temperature;BME280_humidity;BME280_pressure;Samples;Min_cycle;Max_cycle;Signal;HPM_P1;HPM_P2
2022/09/30 00:00:26;;;;;;;15.68;8.95;;;;;;;-143.48;77.52;78821.34;5074906;28;20054;-69
2022/09/30 00:02:51;;;;;;;13.48;8.73;;;;;;;-143.48;77.26;78807.44;5075048;28;20051;-70
2022/09/30 00:05:17;;;;;;;16.80;9.32;;;;;;;-143.48;77.54;78805.47;5093052;28;20111;-69
2022/09/30 00:07:42;;;;;;;24.25;11.00;;;;;;;-143.48;77.44;78809.44;5093102;28;20468;-70
2022/09/30 00:10:08;;;;;;;18.05;9.38;;;;;;;-143.48;77.45;78787.63;5074893;28;20115;-70
2022/09/30 00:12:33;;;;;;;15.70;8.70;;;;;;;-143.48;77.31;78775.72;5074818;28;20078;-70
2022/09/30 00:14:59;;;;;;;19.65;10.02;;;;;;;-143.48;76.85;78747.94;5074782;28;20028;-70
2022/09/30 00:17:24;;;;;;;15.57;9.10;;;;;;;-143.48;76.19;78716.22;5074880;28;20052;-71
2022/09/30 00:19:49;;;;;;;16.17;9.23;;;;;;;-143.48;75.44;78714.22;5092894;28;20024;-71
2022/09/30 00:22:15;;;;;;;17.25;8.70;;;;;;;-143.48;75.96;78720.19;5074814;28;20480;-71
2022/09/30 00:24:40;;;;;;;18.27;9.13;;;;;;;-143.48;76.17;78706.28;5074757;28;20073;-70
2022/09/30 00:27:05;;;;;;;16.55;8.98;;;;;;;-143.48;76.13;78718.19;5074837;28;20020;-68
2022/09/30 00:29:31;;;;;;;16.40;8.38;;;;;;;-143.48;76.12;78740.00;5074708;28;20106;-71
2022/09/30 00:31:56;;;;;;;17.60;8.90;;;;;;;-143.48;76.91;78742.00;5092761;28;20024;-71
2022/09/30 00:34:21;;;;;;;14.27;8.50;;;;;;;-143.48;76.87;78749.94;5092844;28;20031;-71
2022/09/30 00:36:52;;;;;;;18.52;8.77;;;;;;;-143.48;77.08;78738.03;5092640;28;20131;-71
2022/09/30 00:39:25;;;;;;;15.50;8.70;;;;;;;-143.48;77.14;78751.91;5074628;28;20024;-70
2022/09/30 00:41:56;;;;;;;14.68;8.57;;;;;;;-143.48;76.86;78743.97;5092808;28;20028;-70
2022/09/30 00:44:44;;;;;;;13.20;7.95;;;;;;;-143.48;76.77;78728.13;5074706;28;20376;-70
2022/09/30 00:47:32;;;;;;;13.18;7.93;;;;;;;-143.48;76.55;78712.25;5096336;28;20364;-70
2022/09/30 00:50:19;;;;;;;11.85;6.80;;;;;;;-143.48;76.25;78694.41;5096538;28;20024;-70
2022/09/30 00:52:51;;;;;;;10.30;5.63;;;;;;;-143.48;75.60;78670.59;5078297;28;20032;-70
2022/09/30 00:55:26;;;;;;;11.35;6.05;;;;;;;-143.48;74.83;78672.56;5096501;28;20031;-69
2022/09/30 00:57:52;;;;;;;9.35;5.65;;;;;;;-143.48;73.70;78654.72;5096413;28;20030;-71
2022/09/30 01:00:17;;;;;;;9.48;5.65;;;;;;;-143.48;72.67;78662.66;5096215;28;20020;-72
2022/09/30 01:02:45;;;;;;;10.63;5.47;;;;;;;-143.48;73.22;78652.75;5078184;28;20499;-68
2022/09/30 01:05:12;;;;;;;10.25;5.70;;;;;;;-143.48;72.76;78652.75;5096263;28;20028;-69
2022/09/30 01:07:37;;;;;;;9.98;5.50;;;;;;;-143.48;72.76;78646.78;5077972;28;20016;-69
2022/09/30 01:10:03;;;;;;;9.52;4.97;;;;;;;-143.48;73.30;78648.78;5096091;28;20523;-70
2022/09/30 01:12:29;;;;;;;8.77;4.82;;;;;;;-143.48;73.81;78644.81;5096092;28;20027;-70
2022/09/30 01:14:56;;;;;;;8.20;5.38;;;;;;;-143.48;74.78;78650.75;5096189;28;20115;-69
2022/09/30 01:17:33;;;;;;;9.77;5.63;;;;;;;-143.48;74.99;78636.88;5096067;28;20078;-70
2022/09/30 01:20:20;;;;;;;8.05;5.15;;;;;;;-143.48;74.80;78640.84;5095903;28;20055;-70
2022/09/30 01:23:23;;;;;;;6.63;4.70;;;;;;;-143.48;74.96;78652.75;5095946;28;20028;-70
2022/09/30 01:25:57;;;;;;;6.63;4.78;;;;;;;-143.48;75.70;78678.53;5095866;28;20020;-70
2022/09/30 01:28:44;;;;;;;7.43;5.13;;;;;;;-143.48;76.24;78678.53;5095904;28;20544;-70
2022/09/30 01:31:15;;;;;;;9.32;5.63;;;;;;;-143.48;76.62;78690.44;5095680;28;20020;-70
2022/09/30 01:34:02;;;;;;;9.13;5.70;;;;;;;-143.48;76.83;78694.41;5095682;28;20020;-69
2022/09/30 01:36:40;;;;;;;11.55;6.38;;;;;;;-143.48;76.41;78682.50;5095619;28;20415;-70
2022/09/30 01:39:50;;;;;;;10.13;5.97;;;;;;;-143.48;77.00;78690.44;5095630;28;20028;-69
2022/09/30 01:42:27;;;;;;;9.30;5.90;;;;;;;-143.48;76.66;78692.41;5095556;28;20034;-69
2022/09/30 01:45:03;;;;;;;10.63;6.30;;;;;;;-143.48;76.78;78678.53;5095380;28;20442;-70
2022/09/30 01:47:40;;;;;;;10.02;5.95;;;;;;;-143.48;76.35;78684.47;5095582;28;20058;-70
2022/09/30 01:50:14;;;;;;;10.52;6.28;;;;;;;-143.48;76.76;78676.53;5077150;28;20024;-69
2022/09/30 01:52:52;;;;;;;11.25;6.15;;;;;;;-143.48;76.75;78670.59;5095372;28;20067;-70
2022/09/30 01:55:32;;;;;;;10.07;5.82;;;;;;;-143.48;76.47;78660.69;5077021;28;20429;-70
2022/09/30 01:58:11;;;;;;;11.85;5.65;;;;;;;-143.48;75.92;78652.75;5077074;28;20036;-70
2022/09/30 02:00:41;;;;;;;12.10;5.45;;;;;;;-143.48;75.67;78646.78;5095188;28;20039;-70
2022/09/30 02:03:31;;;;;;;8.93;5.28;;;;;;;-143.48;75.01;78640.84;5076944;28;20020;-70
2022/09/30 02:06:01;;;;;;;7.97;5.15;;;;;;;-143.48;75.50;78642.81;5095022;28;20024;-70
2022/09/30 02:09:14;;;;;;;9.10;5.50;;;;;;;-143.48;75.10;78638.84;5095143;28;20015;-70
2022/09/30 02:11:41;;;;;;;7.93;5.00;;;;;;;-143.48;74.91;78650.75;5077361;28;20483;-70
2022/09/30 02:14:26;;;;;;;10.10;5.32;;;;;;;-143.48;75.60;78648.78;5094962;28;20027;-70
2022/09/30 02:17:01;;;;;;;7.50;5.00;;;;;;;-143.48;75.28;78642.81;5094700;28;20024;-70
2022/09/30 02:19:41;;;;;;;11.07;5.40;;;;;;;-143.48;74.87;78644.81;5094802;28;20383;-69
2022/09/30 02:22:13;;;;;;;8.23;4.88;;;;;;;-143.48;74.92;78640.84;5094780;28;20024;-70
2022/09/30 02:24:42;;;;;;;12.00;4.80;;;;;;;-143.48;74.64;78644.81;5094718;28;20027;-69
2022/09/30 02:27:16;;;;;;;7.85;4.38;;;;;;;-143.48;74.43;78646.78;5076614;28;20019;-69
2022/09/30 02:29:48;;;;;;;6.53;4.50;;;;;;;-143.48;74.25;78652.75;5076558;28;20054;-70
2022/09/30 02:32:37;;;;;;;9.73;5.00;;;;;;;-143.48;74.38;78680.50;5094616;28;20447;-70
2022/09/30 02:35:09;;;;;;;10.65;5.10;;;;;;;-143.48;74.65;78666.63;5076415;28;20439;-71
2022/09/30 02:37:47;;;;;;;8.05;5.07;;;;;;;-143.48;74.77;78670.59;5076209;28;20052;-70
2022/09/30 02:40:14;;;;;;;10.35;5.70;;;;;;;-143.48;75.15;78688.44;5094300;28;20491;-69
2022/09/30 02:42:44;;;;;;;8.10;4.95;;;;;;;-143.48;75.23;78702.31;5076110;28;20027;-69
2022/09/30 02:45:15;;;;;;;7.60;5.22;;;;;;;-143.48;75.56;78702.31;5076122;28;20028;-71
2022/09/30 02:47:43;;;;;;;13.40;5.50;;;;;;;-143.48;75.85;78720.19;5076147;28;20028;-71
2022/09/30 02:50:19;;;;;;;8.52;5.65;;;;;;;-143.48;76.42;78714.22;5076029;28;20031;-70
2022/09/30 02:52:50;;;;;;;9.90;5.60;;;;;;;-143.48;75.71;78690.44;5094151;28;20100;-70
2022/09/30 02:55:26;;;;;;;8.40;5.85;;;;;;;-143.48;75.82;78722.16;5094017;28;20042;-70
2022/09/30 02:58:15;;;;;;;11.35;6.05;;;;;;;-143.48;75.80;78743.97;5094069;28;20089;-70
2022/09/30 03:00:40;;;;;;;8.40;5.75;;;;;;;-143.48;76.45;78755.88;5094026;28;20020;-71
2022/09/30 03:03:17;;;;;;;9.02;5.90;;;;;;;-143.48;76.85;78761.84;5094146;28;20531;-70
2022/09/30 03:05:43;;;;;;;8.75;5.55;;;;;;;-143.48;77.12;78775.72;5094084;28;20035;-70
2022/09/30 03:08:10;;;;;;;9.95;5.90;;;;;;;-143.48;77.00;78781.66;5075439;28;20477;-71
2022/09/30 03:10:35;;;;;;;10.98;5.85;;;;;;;-143.48;77.72;78799.50;5075707;28;20383;-70
2022/09/30 03:13:21;;;;;;;11.35;6.00;;;;;;;-143.48;77.99;78805.47;5093886;28;20016;-70
2022/09/30 03:16:08;;;;;;;9.70;4.70;;;;;;;-143.48;77.85;78821.34;5093932;28;20085;-70
2022/09/30 03:18:46;;;;;;;7.45;4.75;;;;;;;-143.48;77.99;78817.38;5093816;28;20387;-70
2022/09/30 03:21:59;;;;;;;9.05;5.22;;;;;;;-143.48;78.09;78833.22;5075872;28;20118;-70
2022/09/30 03:24:32;;;;;;;9.03;5.40;;;;;;;-143.48;77.91;78839.19;5076427;28;20035;-70
2022/09/30 03:27:31;;;;;;;9.70;5.10;;;;;;;-143.48;78.31;78857.03;5075478;28;20020;-70
2022/09/30 03:30:10;;;;;;;8.50;5.18;;;;;;;-143.48;78.65;78855.06;5075415;28;20490;-71
2022/09/30 03:32:56;;;;;;;9.85;4.97;;;;;;;-143.48;78.59;78859.03;5093431;28;20032;-70
2022/09/30 03:35:34;;;;;;;11.65;5.40;;;;;;;-143.48;78.29;78864.97;5093715;28;20119;-71
2022/09/30 03:38:18;;;;;;;9.10;4.82;;;;;;;-143.48;78.35;78874.88;5093505;28;20044;-71
2022/09/30 03:40:50;;;;;;;7.07;4.85;;;;;;;-143.48;78.22;78882.81;5093448;28;20416;-70
2022/09/30 03:43:15;;;;;;;7.13;4.82;;;;;;;-143.48;78.97;78876.88;5075304;28;20399;-70
2022/09/30 03:46:05;;;;;;;8.50;4.90;;;;;;;-143.48;78.80;78888.78;5075270;28;20028;-70
2022/09/30 03:48:33;;;;;;;10.50;4.68;;;;;;;-143.48;78.82;78886.78;5093385;28;20030;-69
2022/09/30 03:50:59;;;;;;;9.90;5.00;;;;;;;-143.48;79.02;78900.66;5093343;28;20030;-70
2022/09/30 03:53:27;;;;;;;8.73;4.93;;;;;;;-143.48;78.69;78910.59;5075272;28;20024;-70
2022/09/30 03:55:53;;;;;;;8.38;4.75;;;;;;;-143.48;78.35;78912.56;5093313;28;20082;-69
2022/09/30 03:58:22;;;;;;;7.70;4.90;;;;;;;-143.48;78.51;78912.56;5093272;28;20048;-70
2022/09/30 04:00:50;;;;;;;9.38;4.78;;;;;;;-143.48;78.25;78918.53;5093431;28;20020;-70
2022/09/30 04:03:16;;;;;;;10.23;5.20;;;;;;;-143.48;78.56;78914.56;5075300;28;20070;-69
2022/09/30 04:05:42;;;;;;;12.52;5.10;;;;;;;-143.48;78.87;78910.59;5093460;28;20467;-71
2022/09/30 04:08:08;;;;;;;10.80;5.53;;;;;;;-143.48;78.76;78896.69;5093557;28;20024;-70
2022/09/30 04:10:34;;;;;;;10.05;6.07;;;;;;;-143.48;79.22;78900.66;5075523;28;20027;-71
2022/09/30 04:12:59;;;;;;;15.35;6.05;;;;;;;-143.48;78.80;78908.59;5075798;28;20476;-70
2022/09/30 04:15:26;;;;;;;12.00;5.47;;;;;;;-143.48;78.59;78914.56;5094290;28;20471;-71
2022/09/30 04:17:51;;;;;;;10.88;6.10;;;;;;;-143.48;78.69;78922.50;5094053;28;20028;-70
2022/09/30 04:20:17;;;;;;;8.25;5.72;;;;;;;-143.48;78.92;78930.41;5094743;28;20360;-69
2022/09/30 04:22:42;;;;;;;10.13;6.57;;;;;;;-143.48;78.95;78942.31;5080543;28;20023;-70
2022/09/30 04:25:07;;;;;;;13.30;6.60;;;;;;;-143.48;79.06;78930.41;5099551;28;20051;-71
2022/09/30 04:27:33;;;;;;;10.82;6.55;;;;;;;-143.48;78.51;78936.38;5099457;28;20364;-70
2022/09/30 04:29:58;;;;;;;10.48;7.03;;;;;;;-143.48;78.55;78948.28;5082100;28;20043;-69
2022/09/30 04:32:24;;;;;;;11.93;6.60;;;;;;;-143.48;78.40;78954.22;5082150;28;20049;-70
2022/09/30 04:34:50;;;;;;;9.52;6.35;;;;;;;-143.48;78.64;78958.19;5082062;28;20031;-70
2022/09/30 04:37:16;;;;;;;9.18;6.28;;;;;;;-143.48;78.46;78954.22;5082336;28;20051;-73
2022/09/30 04:39:41;;;;;;;9.73;6.22;;;;;;;-143.48;78.46;78952.25;5102875;28;20028;-74
2022/09/30 04:42:07;;;;;;;9.32;6.57;;;;;;;-143.48;78.26;78962.16;5089005;28;20482;-74
2022/09/30 04:44:34;;;;;;;13.35;7.05;;;;;;;-143.48;79.00;78958.19;5090603;28;20020;-71
2022/09/30 04:47:01;;;;;;;11.70;7.18;;;;;;;-143.48;79.11;78938.34;5107362;28;20024;-71
2022/09/30 04:49:26;;;;;;;11.75;7.07;;;;;;;-143.48;78.90;78926.47;5108129;28;20091;-72
2022/09/30 04:51:53;;;;;;;13.70;7.50;;;;;;;-143.48;78.56;78922.50;5091690;28;20020;-71
2022/09/30 04:54:19;;;;;;;10.27;6.63;;;;;;;-143.48;77.87;78952.25;5109338;28;20054;-73
2022/09/30 04:56:44;;;;;;;12.43;7.05;;;;;;;-143.48;78.22;78970.09;5090691;28;20028;-75
2022/09/30 04:59:09;;;;;;;10.13;6.63;;;;;;;-143.48;78.04;78976.03;5089712;28;20008;-72
2022/09/30 05:01:35;;;;;;;14.85;7.10;;;;;;;-143.48;77.99;78987.94;5108665;28;20117;-70
2022/09/30 05:04:01;;;;;;;12.95;6.78;;;;;;;-143.48;77.92;78999.84;5109204;28;20022;-73
2022/09/30 05:06:26;;;;;;;11.23;7.22;;;;;;;-143.48;79.04;78985.97;5101294;28;20028;-70
2022/09/30 05:08:51;;;;;;;13.65;7.75;;;;;;;-143.48;79.24;78952.25;5080520;28;20119;-70
2022/09/30 05:11:18;;;;;;;12.52;7.38;;;;;;;-143.48;79.41;78966.13;5079585;28;20024;-72
2022/09/30 05:13:45;;;;;;;11.40;7.82;;;;;;;-143.48;79.38;78946.28;5097627;28;20028;-70
2022/09/30 05:16:10;;;;;;;12.18;8.40;;;;;;;-143.48;79.45;78944.31;5079265;28;20024;-71
2022/09/30 05:18:38;;;;;;;14.32;7.85;;;;;;;-143.48;78.86;78950.25;5097591;28;20081;-69
2022/09/30 05:21:03;;;;;;;12.25;7.22;;;;;;;-143.48;78.96;78944.31;5102166;28;20052;-70
2022/09/30 05:23:30;;;;;;;13.45;7.55;;;;;;;-143.48;78.34;78954.22;5079181;28;20051;-70
2022/09/30 05:25:56;;;;;;;13.85;7.88;;;;;;;-143.48;78.89;78964.16;5097109;28;20471;-70
2022/09/30 05:28:22;;;;;;;11.02;7.22;;;;;;;-143.48;78.68;78980.00;5079993;28;20043;-69
2022/09/30 05:30:48;;;;;;;14.40;7.75;;;;;;;-143.48;78.69;78978.03;5078607;28;20024;-69
2022/09/30 05:33:14;;;;;;;13.70;8.02;;;;;;;-143.48;79.58;78964.16;5096609;28;20012;-70
2022/09/30 05:35:41;;;;;;;15.95;8.20;;;;;;;-143.48;79.44;78954.22;5095901;28;20035;-70
2022/09/30 05:38:07;;;;;;;12.75;7.65;;;;;;;-143.48;79.08;78956.22;5078063;28;20108;-70
2022/09/30 05:40:33;;;;;;;14.63;7.70;;;;;;;-143.48;79.03;78960.19;5095903;28;20028;-70
2022/09/30 05:42:59;;;;;;;10.25;7.10;;;;;;;-143.48;78.56;78972.06;5095831;28;20154;-70
2022/09/30 05:45:25;;;;;;;14.10;8.13;;;;;;;-143.48;79.14;78968.09;5095704;28;20020;-69
2022/09/30 05:47:52;;;;;;;13.98;8.25;;;;;;;-143.48;79.43;78934.38;5077330;28;20032;-70
2022/09/30 05:50:19;;;;;;;12.55;7.93;;;;;;;-143.48;78.59;78948.28;5095422;28;20016;-69
2022/09/30 05:52:45;;;;;;;11.65;7.70;;;;;;;-143.48;78.51;78932.41;5077268;28;20192;-69
2022/09/30 05:55:10;;;;;;;14.48;7.93;;;;;;;-143.48;78.28;78930.41;5095143;28;20041;-69
2022/09/30 05:57:35;;;;;;;13.43;8.07;;;;;;;-143.48;78.30;78934.38;5077452;28;20032;-70
2022/09/30 06:00:01;;;;;;;13.32;8.02;;;;;;;-143.48;77.70;78952.25;5077188;28;20032;-70
2022/09/30 06:02:26;;;;;;;16.98;7.63;;;;;;;-143.48;78.02;78954.22;5095524;28;20032;-69
2022/09/30 06:04:51;;;;;;;14.15;7.85;;;;;;;-143.48;77.69;78956.22;5077134;28;20020;-70
2022/09/30 06:07:17;;;;;;;13.80;7.75;;;;;;;-143.48;77.96;78970.09;5077059;28;20487;-69
2022/09/30 06:09:42;;;;;;;14.73;8.07;;;;;;;-143.48;78.01;78960.19;5095095;28;20020;-70
2022/09/30 06:12:08;;;;;;;13.10;7.93;;;;;;;-143.48;78.15;78946.28;5076874;28;20019;-68
2022/09/30 06:14:34;;;;;;;14.35;7.82;;;;;;;-143.48;77.37;78924.47;5077334;28;20024;-71
2022/09/30 06:16:59;;;;;;;14.18;9.02;;;;;;;-143.48;77.95;78912.56;5079932;28;20424;-69
2022/09/30 06:19:27;;;;;;;17.33;8.52;;;;;;;-143.48;77.80;78896.69;5095011;28;20052;-69
2022/09/30 06:21:53;;;;;;;15.38;9.10;;;;;;;-143.48;77.77;78880.84;5098636;28;20428;-70
2022/09/30 06:24:18;;;;;;;19.33;8.32;;;;;;;-143.48;77.05;78890.75;5100168;28;20051;-73
2022/09/30 06:26:44;;;;;;;14.80;9.00;;;;;;;-143.48;77.90;78900.66;5083388;28;20028;-76
2022/09/30 06:29:09;;;;;;;14.32;8.68;;;;;;;-143.48;77.60;78880.84;5081712;28;20413;-73
2022/09/30 06:31:35;;;;;;;15.27;8.95;;;;;;;-143.48;77.06;78862.97;5082409;28;20034;-72
2022/09/30 06:34:00;;;;;;;13.80;8.25;;;;;;;-143.48;76.97;78862.97;5076641;28;20077;-70
2022/09/30 06:36:28;;;;;;;15.00;8.60;;;;;;;-143.48;77.30;78866.94;5093905;28;20043;-71
2022/09/30 06:38:54;;;;;;;14.60;8.63;;;;;;;-143.48;77.71;78853.06;5093056;28;20024;-71
2022/09/30 06:41:19;;;;;;;15.38;8.90;;;;;;;-143.48;77.06;78833.22;5093795;28;20028;-72
2022/09/30 06:43:45;;;;;;;16.27;8.07;;;;;;;-143.48;76.64;78815.38;5093167;28;20390;-71
2022/09/30 06:46:11;;;;;;;12.27;7.82;;;;;;;-143.48;75.80;78783.66;5076170;28;20516;-70
2022/09/30 06:48:36;;;;;;;15.32;8.38;;;;;;;-143.48;75.22;78773.72;5074975;28;20130;-72
2022/09/30 06:51:02;;;;;;;16.00;8.25;;;;;;;-143.48;75.35;78773.72;5080526;28;20429;-71
2022/09/30 06:53:28;;;;;;;13.82;8.52;;;;;;;-143.48;75.47;78773.72;5076337;28;20459;-70
2022/09/30 06:55:57;;;;;;;11.10;7.88;;;;;;;-143.48;75.11;78751.91;5094047;28;20074;-69
2022/09/30 06:58:23;;;;;;;11.20;8.15;;;;;;;-143.48;74.76;78714.22;5094098;28;20035;-69
2022/09/30 07:00:56;;;;;;;11.32;8.20;;;;;;;-143.48;73.84;78694.41;5075878;28;20387;-70
2022/09/30 07:03:28;;;;;;;13.20;8.00;;;;;;;-143.48;72.48;78638.84;5075402;28;20383;-71
2022/09/30 07:06:04;;;;;;;12.40;7.95;;;;;;;-143.48;70.82;78607.13;5093721;28;20055;-70
2022/09/30 07:08:31;;;;;;;12.48;8.23;;;;;;;-143.48;70.77;78601.19;5094033;28;20024;-70
2022/09/30 07:11:03;;;;;;;15.95;8.30;;;;;;;-143.48;70.81;78607.13;5075823;28;20073;-69
2022/09/30 07:13:29;;;;;;;11.68;8.27;;;;;;;-143.48;70.80;78573.41;5075649;28;20039;-70
2022/09/30 07:15:55;;;;;;;11.90;8.35;;;;;;;-143.48;69.97;78531.75;5058722;28;20040;-71
2022/09/30 07:18:22;;;;;;;15.05;8.88;;;;;;;-143.48;68.19;78494.06;5075891;28;20028;-70
2022/09/30 07:20:52;;;;;;;15.15;8.73;;;;;;;-143.48;67.13;78456.41;5075715;28;20085;-70
2022/09/30 07:23:18;;;;;;;16.00;8.57;;;;;;;-143.48;58.07;78109.34;5075619;28;20027;-71
2022/09/30 07:25:59;;;;;;;11.88;7.97;;;;;;;-143.48;51.45;77801.97;5075540;28;20182;-72
2022/09/30 07:28:29;;;;;;;13.25;7.40;;;;;;;-143.48;50.97;77893.19;5094019;28;20016;-71
2022/09/30 07:30:57;;;;;;;12.50;7.60;;;;;;;-143.48;52.32;77992.34;5093853;28;20061;-71
2022/09/30 07:33:25;;;;;;;11.60;7.80;;;;;;;-143.48;57.29;78182.72;5075319;28;20418;-72
2022/09/30 07:35:55;;;;;;;12.20;8.07;;;;;;;-143.48;60.54;78260.06;5075137;28;20024;-72
2022/09/30 07:38:23;;;;;;;12.50;7.97;;;;;;;-143.48;62.03;78289.81;5077293;28;20080;-71
2022/09/30 07:40:57;;;;;;;14.00;8.15;;;;;;;-143.48;61.77;78289.81;5075389;28;20021;-71
2022/09/30 07:43:23;;;;;;;11.70;8.30;;;;;;;-143.48;61.58;78238.25;5075697;28;20034;-71
2022/09/30 07:45:50;;;;;;;11.77;7.95;;;;;;;-143.48;63.06;78240.22;5077593;28;20031;-72
2022/09/30 07:51:00;;;;;;;13.23;7.57;;;;;;;-143.48;59.06;78139.09;5094487;28;20085;-72
2022/09/30 07:53:25;;;;;;;13.57;8.07;;;;;;;-143.48;57.51;78020.09;5076056;28;20040;-71
2022/09/30 07:55:51;;;;;;;10.27;7.85;;;;;;;-143.48;53.58;77917.00;5078931;28;20020;-71
2022/09/30 07:58:17;;;;;;;10.10;7.30;;;;;;;-143.48;46.65;77536.28;5076278;28;20340;-71
2022/09/30 08:00:42;;;;;;;8.80;6.25;;;;;;;-143.48;44.88;77492.66;5094462;28;20028;-71
2022/09/30 08:03:07;;;;;;;8.38;6.13;;;;;;;-143.48;45.38;77502.56;5096227;28;20115;-83
2022/09/30 08:05:38;;;;;;;8.02;6.15;;;;;;;-143.48;49.90;77809.91;5082191;28;20048;-81
2022/09/30 08:08:05;;;;;;;10.25;6.40;;;;;;;-143.48;53.51;77936.81;5080863;28;20055;-80
2022/09/30 08:10:33;;;;;;;14.50;6.80;;;;;;;-143.48;52.91;77940.78;5098833;28;20055;-80
2022/09/30 08:12:59;;;;;;;11.45;7.40;;;;;;;-143.48;53.41;77964.56;5099013;28;20106;-79
2022/09/30 08:15:24;;;;;;;12.55;7.50;;;;;;;-143.48;49.82;77770.25;5080333;28;20504;-77
2022/09/30 08:17:49;;;;;;;12.82;6.68;;;;;;;-143.48;47.98;77661.19;5080385;28;20056;-80
2022/09/30 08:20:15;;;;;;;9.68;6.80;;;;;;;-143.48;46.37;77506.53;5081247;28;20028;-79
2022/09/30 08:22:40;;;;;;;10.32;6.40;;;;;;;-143.48;46.59;77583.84;5100409;28;20043;-78
2022/09/30 08:25:06;;;;;;;11.60;6.90;;;;;;;-143.48;46.57;77577.91;5100101;28;20413;-79
2022/09/30 08:27:31;;;;;;;10.07;7.15;;;;;;;-143.48;42.01;77300.31;5080177;28;20077;-77
2022/09/30 08:29:56;;;;;;;8.65;6.30;;;;;;;-143.48;41.88;77343.94;5099521;28;20055;-78
2022/09/30 08:32:22;;;;;;;9.48;6.30;;;;;;;-143.48;39.94;77191.28;5081441;28;20024;-77
2022/09/30 08:34:48;;;;;;;9.60;6.30;;;;;;;-143.48;43.96;77488.69;5082641;28;20020;-80
2022/09/30 08:37:13;;;;;;;12.20;6.90;;;;;;;-143.48;48.75;77742.50;5083252;28;20048;-79
2022/09/30 08:39:39;;;;;;;10.25;7.00;;;;;;;-143.48;49.40;77726.63;5100039;28;20028;-75
2022/09/30 08:42:17;;;;;;;13.20;7.53;;;;;;;-143.48;51.83;77843.63;5095261;28;20080;-76
2022/09/30 08:44:46;;;;;;;13.48;7.80;;;;;;;-143.48;54.27;77942.78;5096127;28;20039;-75
2022/09/30 08:47:40;;;;;;;10.23;7.50;;;;;;;-143.48;54.05;77909.06;5094465;28;20034;-75
2022/09/30 08:50:41;;;;;;;13.55;7.68;;;;;;;-143.48;53.74;77895.19;5052876;28;20040;-76
2022/09/30 08:53:13;;;;;;;12.82;7.40;;;;;;;-143.48;53.84;77869.41;5094904;28;20020;-75
2022/09/30 08:55:42;;;;;;;10.35;7.72;;;;;;;-143.48;54.05;77924.91;5077131;28;20115;-75
2022/09/30 08:58:28;;;;;;;11.38;7.65;;;;;;;-143.48;54.04;77936.81;5078243;28;20024;-74
2022/09/30 09:01:29;;;;;;;11.63;7.65;;;;;;;-143.48;56.71;78032.00;5095629;28;20077;-74
2022/09/30 09:03:56;;;;;;;12.25;7.68;;;;;;;-143.48;57.28;78047.88;5092588;28;20044;-75
2022/09/30 09:06:32;;;;;;;12.90;7.95;;;;;;;-143.48;57.18;78022.09;5097561;28;20028;-74
2022/09/30 09:09:15;;;;;;;13.98;7.80;;;;;;;-143.48;57.19;78024.06;5080834;28;20020;-72
2022/09/30 09:11:40;;;;;;;9.80;7.32;;;;;;;-143.48;57.84;78049.84;5079321;28;20028;-72
2022/09/30 09:14:38;;;;;;;11.63;8.13;;;;;;;-143.48;56.25;77992.34;5096948;28;20040;-72
2022/09/30 09:17:21;;;;;;;11.80;8.40;;;;;;;-143.48;56.56;78004.25;5079134;28;20024;-72
2022/09/30 09:19:59;;;;;;;10.88;8.13;;;;;;;-143.48;56.11;77956.66;5078935;28;20031;-72
2022/09/30 09:22:27;;;;;;;15.95;8.00;;;;;;;-143.48;48.90;77579.91;5078720;28;20028;-69
2022/09/30 09:24:54;;;;;;;13.20;7.57;;;;;;;-143.48;40.90;77155.59;5096824;28;20028;-71
2022/09/30 09:27:24;;;;;;;10.32;7.28;;;;;;;-143.48;38.82;77086.19;5097025;28;20452;-71
2022/09/30 09:30:12;;;;;;;9.77;7.32;;;;;;;-143.48;45.22;77500.59;5078678;28;20024;-71
2022/09/30 09:32:38;;;;;;;9.23;7.10;;;;;;;-143.48;40.24;77133.78;5078980;28;20024;-72
2022/09/30 09:35:13;;;;;;;12.55;7.20;;;;;;;-143.48;39.43;77094.13;5096739;28;20020;-71
2022/09/30 09:40:44;;;;;;;10.00;6.35;;;;;;;-143.48;46.92;77611.63;5096627;28;20028;-70
2022/09/30 09:43:22;;;;;;;8.90;6.40;;;;;;;-143.48;47.88;77643.34;5097803;28;20111;-70
2022/09/30 09:46:10;;;;;;;8.93;5.82;;;;;;;-143.48;44.05;77357.81;5096890;28;20418;-72
2022/09/30 09:48:36;;;;;;;8.30;5.90;;;;;;;-143.48;44.75;77464.88;5085891;28;20039;-70
2022/09/30 09:51:25;;;;;;;7.75;5.68;;;;;;;-143.48;45.20;77540.25;5097139;28;20027;-71
2022/09/30 09:53:52;;;;;;;7.80;5.50;;;;;;;-143.48;45.07;77498.59;5097293;28;20046;-71
2022/09/30 09:56:25;;;;;;;8.75;4.95;;;;;;;-143.48;46.11;77500.59;5096944;28;20028;-70
2022/09/30 09:59:23;;;;;;;;;;;;;;;-143.48;46.16;77633.44;5078386;28;20049;-71
2022/09/30 10:01:52;;;;;;;4.70;3.80;;;;;;;-143.48;45.13;77548.16;5024842;28;19994;-70
2022/09/30 10:04:22;;;;;;;5.68;4.20;;;;;;;-143.48;45.64;77571.97;5079113;28;20073;-71
2022/09/30 10:06:51;;;;;;;8.55;3.80;;;;;;;-143.48;45.90;77591.78;5078103;28;20024;-73
2022/09/30 10:09:27;;;;;;;7.63;3.88;;;;;;;-143.48;47.73;77750.41;5077931;28;20563;-72
2022/09/30 10:12:05;;;;;;;10.13;3.83;;;;;;;-143.48;48.23;77728.59;5077710;28;20024;-73
2022/09/30 10:14:34;;;;;;;7.35;4.20;;;;;;;-143.48;48.96;77734.56;5095124;28;20027;-71
2022/09/30 10:17:04;;;;;;;5.35;3.83;;;;;;;-143.48;46.39;77575.94;5095336;28;20023;-72
2022/09/30 10:19:33;;;;;;;7.65;4.13;;;;;;;-143.48;46.86;77657.22;5076385;28;20020;-74
2022/09/30 10:22:07;;;;;;;5.68;3.40;;;;;;;-143.48;48.47;77704.81;5095298;28;20031;-72
2022/09/30 10:24:34;;;;;;;4.22;3.03;;;;;;;-143.48;46.84;77661.19;5095796;28;20039;-73
2022/09/30 10:26:59;;;;;;;4.07;2.85;;;;;;;-143.48;47.37;77700.84;5095335;28;20478;-71
2022/09/30 10:29:32;;;;;;;3.75;2.80;;;;;;;-143.48;46.73;77675.06;5077244;28;20035;-71
2022/09/30 10:32:00;;;;;;;3.55;2.40;;;;;;;-143.48;44.72;77573.94;5095595;28;20023;-71
2022/09/30 10:34:38;;;;;;;5.43;2.22;;;;;;;-143.48;45.63;77643.34;5095864;28;20093;-71
2022/09/30 10:37:13;;;;;;;4.60;2.20;;;;;;;-143.48;45.96;77619.56;5076968;28;20109;-70
2022/09/30 10:39:41;;;;;;;4.97;2.30;;;;;;;-143.48;44.79;77508.50;5077301;28;20085;-71
2022/09/30 10:42:14;;;;;;;10.35;2.53;;;;;;;-143.48;44.31;77558.09;5076729;28;20016;-72
2022/09/30 10:44:55;;;;;;;4.63;1.80;;;;;;;-143.48;44.88;77573.94;5077332;28;20074;-72
2022/09/30 10:47:25;;;;;;;3.88;1.52;;;;;;;-143.48;45.08;77706.78;5077964;28;20024;-71
2022/09/30 10:49:56;;;;;;;3.25;1.58;;;;;;;-143.48;46.09;77782.16;5076930;28;20020;-73
2022/09/30 10:52:25;;;;;;;3.72;1.77;;;;;;;-143.48;45.62;77647.31;5077386;28;20391;-70
2022/09/30 10:54:53;;;;;;;2.45;1.50;;;;;;;-143.48;46.27;77686.97;5095310;28;20024;-74
2022/09/30 10:57:28;;;;;;;2.55;1.40;;;;;;;-143.48;46.32;77675.06;5078624;28;20028;-72
2022/09/30 10:59:59;;;;;;;4.45;1.27;;;;;;;-143.48;43.98;77556.09;5098462;28;20321;-71
2022/09/30 11:02:36;;;;;;;5.25;1.50;;;;;;;-143.48;44.47;77655.25;5077771;28;20110;-72
2022/09/30 11:05:18;;;;;;;3.03;1.70;;;;;;;-143.48;43.93;77593.78;5095964;28;20484;-72
2022/09/30 11:07:48;;;;;;;2.50;1.35;;;;;;;-143.48;44.10;77573.94;5096650;28;20095;-70
2022/09/30 11:10:26;;;;;;;8.38;1.50;;;;;;;-143.48;43.44;77573.94;5094880;28;20487;-71
2022/09/30 11:13:06;;;;;;;3.75;1.60;;;;;;;-143.48;45.71;77633.44;5076958;28;20063;-71
2022/09/30 11:16:06;;;;;;;2.70;1.45;;;;;;;-143.48;43.50;77536.28;5077035;28;20459;-69
2022/09/30 11:18:38;;;;;;;1.35;1.10;;;;;;;-143.48;42.28;77458.94;5044761;28;20035;-70
2022/09/30 11:21:12;;;;;;;1.10;1.00;;;;;;;-143.48;42.73;77534.28;5076275;28;20024;-72
2022/09/30 11:23:45;;;;;;;4.20;1.10;;;;;;;-143.48;44.57;77696.88;5095184;28;20081;-72
2022/09/30 11:26:27;;;;;;;1.70;0.88;;;;;;;-143.48;43.80;77637.41;5076981;28;20078;-73
2022/09/30 11:29:14;;;;;;;3.33;1.80;;;;;;;-143.48;42.29;77512.47;5078019;28;20066;-69
2022/09/30 11:31:50;;;;;;;1.95;1.25;;;;;;;-143.48;42.01;77484.72;5095706;28;20262;-70
2022/09/30 11:34:31;;;;;;;3.67;1.60;;;;;;;-143.48;41.87;77476.78;5076953;28;20085;-72
2022/09/30 11:37:38;;;;;;;4.90;1.90;;;;;;;-143.48;42.37;77508.50;5076784;28;20135;-74